createdAt,value
2019-03-27T00:00:31.083Z,16.03
2019-03-27T00:03:00.926Z,16.87
2019-03-27T00:05:31.146Z,15.23
2019-03-27T00:08:01.007Z,14.97
2019-03-27T00:10:31.015Z,16.63
2019-03-27T00:13:01.017Z,15.70
2019-03-27T00:15:31.094Z,15.43
2019-03-27T00:18:00.930Z,16.80
2019-03-27T00:20:30.685Z,17.07
2019-03-27T00:23:00.517Z,16.20
2019-03-27T00:25:30.328Z,17.57
2019-03-27T00:28:00.230Z,18.77
2019-03-27T00:30:30.437Z,20.53
2019-03-27T00:33:00.302Z,19.97
2019-03-27T00:35:30.481Z,17.80
2019-03-27T00:38:00.318Z,18.57
2019-03-27T00:40:30.109Z,19.50
2019-03-27T00:43:00.125Z,18.53
2019-03-27T00:45:29.857Z,18.37
2019-03-27T00:48:00.252Z,18.50
2019-03-27T00:50:30.044Z,27.77
2019-03-27T00:52:59.872Z,22.10
2019-03-27T00:55:29.701Z,19.33
2019-03-27T00:57:59.903Z,21.77
2019-03-27T01:00:35.546Z,15.43
2019-03-27T01:03:05.555Z,17.03
2019-03-27T01:05:35.510Z,14.87
2019-03-27T01:08:05.680Z,17.70
2019-03-27T01:10:35.933Z,17.90
2019-03-27T01:13:06.371Z,14.27
2019-03-27T01:15:40.206Z,14.57
2019-03-27T01:18:09.253Z,15.47
2019-03-27T01:20:39.221Z,15.80
2019-03-27T01:23:09.214Z,15.23
2019-03-27T01:25:42.329Z,16.17
2019-03-27T01:28:12.233Z,15.00
2019-03-27T01:30:42.098Z,15.47
2019-03-27T01:33:12.120Z,19.40
2019-03-27T01:35:42.102Z,20.10
2019-03-27T01:38:12.074Z,20.97
2019-03-27T01:40:42.284Z,19.30
2019-03-27T01:43:12.223Z,19.57
2019-03-27T01:45:52.426Z,20.10
2019-03-27T01:48:14.776Z,19.87
2019-03-27T01:50:44.839Z,19.93
2019-03-27T01:53:14.854Z,18.57
2019-03-27T01:55:44.830Z,18.87
2019-03-27T01:58:14.881Z,19.60
2019-03-27T02:00:44.844Z,19.47
2019-03-27T02:03:14.797Z,22.10
2019-03-27T02:05:45.125Z,18.50
2019-03-27T02:08:15.094Z,18.07
2019-03-27T02:10:45.530Z,19.30
2019-03-27T02:13:15.567Z,18.97
2019-03-27T02:15:46.499Z,28.63
2019-03-27T02:18:16.554Z,19.60
2019-03-27T02:20:47.069Z,20.63
2019-03-27T02:23:17.311Z,15.93
2019-03-27T02:25:47.219Z,20.93
2019-03-27T02:28:17.744Z,16.57
2019-03-27T02:30:48.255Z,17.27
2019-03-27T02:33:18.097Z,22.30
2019-03-27T02:35:48.029Z,20.47
2019-03-27T02:38:17.999Z,16.97
2019-03-27T02:40:48.037Z,17.57
2019-03-27T02:43:18.006Z,19.73
2019-03-27T02:45:48.318Z,18.37
2019-03-27T02:48:18.238Z,18.80
2019-03-27T02:50:48.586Z,17.70
2019-03-27T02:53:18.550Z,16.97
2019-03-27T02:55:48.631Z,19.00
2019-03-27T02:58:18.610Z,16.57
2019-03-27T03:00:48.640Z,17.57
2019-03-27T03:03:19.066Z,17.77
2019-03-27T03:05:49.083Z,20.00
2019-03-27T03:08:19.425Z,20.03
2019-03-27T03:10:49.348Z,19.90
2019-03-27T03:13:19.203Z,19.43
2019-03-27T03:15:49.832Z,20.27
2019-03-27T03:18:19.838Z,17.17
2019-03-27T03:20:50.076Z,16.93
2019-03-27T03:23:19.987Z,16.77
2019-03-27T03:25:49.817Z,20.53
2019-03-27T03:28:20.025Z,16.43
2019-03-27T03:30:49.904Z,18.00
2019-03-27T03:33:19.856Z,16.33
2019-03-27T03:35:49.763Z,16.10
2019-03-27T03:38:19.826Z,16.23
2019-03-27T03:40:49.786Z,18.13
2019-03-27T03:43:20.003Z,18.83
2019-03-27T03:45:49.826Z,17.87
2019-03-27T03:48:19.788Z,19.57
2019-03-27T03:50:50.332Z,16.43
2019-03-27T03:53:21.032Z,19.27
2019-03-27T03:55:51.567Z,17.80
2019-03-27T03:58:22.879Z,19.10
2019-03-27T04:00:53.199Z,24.00
2019-03-27T04:03:26.482Z,17.57
2019-03-27T04:05:56.340Z,17.10
2019-03-27T04:08:26.566Z,20.53
2019-03-27T04:10:56.460Z,19.83
2019-03-27T04:13:26.768Z,20.13
2019-03-27T04:15:59.252Z,22.47
2019-03-27T04:18:29.228Z,18.37
2019-03-27T04:20:59.126Z,16.77
2019-03-27T04:23:29.131Z,20.23
2019-03-27T04:26:09.465Z,18.00
2019-03-27T04:28:30.630Z,20.47
2019-03-27T04:31:01.208Z,21.43
2019-03-27T04:33:31.715Z,18.60
2019-03-27T04:36:01.599Z,22.10
2019-03-27T04:38:32.540Z,23.53
2019-03-27T04:41:02.581Z,22.73
2019-03-27T04:43:32.813Z,21.70
2019-03-27T04:46:02.691Z,23.73
2019-03-27T04:48:32.816Z,20.10
2019-03-27T04:51:03.157Z,24.43
2019-03-27T04:53:33.411Z,24.30
2019-03-27T04:56:03.497Z,24.73
2019-03-27T04:58:33.518Z,21.90
2019-03-27T05:01:04.779Z,20.83
2019-03-27T05:03:36.723Z,22.30
2019-03-27T05:06:07.444Z,21.87
2019-03-27T05:08:37.632Z,22.03
2019-03-27T05:11:08.817Z,22.70
2019-03-27T05:13:41.159Z,19.97
2019-03-27T05:16:11.114Z,23.93
2019-03-27T05:18:41.856Z,20.43
2019-03-27T05:21:12.209Z,19.43
2019-03-27T05:23:42.129Z,22.10
2019-03-27T05:26:12.028Z,23.13
2019-03-27T05:28:41.894Z,24.27
2019-03-27T05:31:12.226Z,21.77
2019-03-27T05:33:42.168Z,22.67
2019-03-27T05:36:12.052Z,22.90
2019-03-27T05:38:41.894Z,24.93
2019-03-27T05:41:12.110Z,23.13
2019-03-27T05:43:41.998Z,23.47
2019-03-27T05:46:12.006Z,25.70
2019-03-27T05:48:41.862Z,22.43
2019-03-27T05:51:12.045Z,23.17
2019-03-27T05:53:41.870Z,24.40
2019-03-27T05:56:13.323Z,20.90
2019-03-27T05:58:43.756Z,27.93
2019-03-27T06:01:13.939Z,23.63
2019-03-27T06:03:43.892Z,20.07
2019-03-27T06:06:14.177Z,23.17
2019-03-27T06:08:44.486Z,25.93
2019-03-27T06:11:15.076Z,23.63
2019-03-27T06:13:45.169Z,27.60
2019-03-27T06:16:15.103Z,23.17
2019-03-27T06:18:45.017Z,23.67
2019-03-27T06:21:14.784Z,24.93
2019-03-27T06:23:45.453Z,23.07
2019-03-27T06:26:15.280Z,28.57
2019-03-27T06:28:45.196Z,23.43
2019-03-27T06:31:15.222Z,19.97
2019-03-27T06:33:45.140Z,24.33
2019-03-27T06:36:15.302Z,24.47
2019-03-27T06:38:45.520Z,24.80
2019-03-27T06:41:15.434Z,25.20
2019-03-27T06:43:45.983Z,22.63
2019-03-27T06:46:15.918Z,24.90
2019-03-27T06:48:45.936Z,23.17
2019-03-27T06:51:17.990Z,26.93
2019-03-27T06:53:47.828Z,23.60
2019-03-27T06:56:17.923Z,26.77
2019-03-27T06:58:54.654Z,23.60
2019-03-27T07:01:19.490Z,29.50
2019-03-27T07:03:49.638Z,29.03
2019-03-27T07:06:19.487Z,23.93
2019-03-27T07:08:49.205Z,26.53
2019-03-27T07:11:18.970Z,29.00
2019-03-27T07:13:48.895Z,29.30
2019-03-27T07:16:18.731Z,25.77
2019-03-27T07:18:48.486Z,27.83
2019-03-27T07:21:18.581Z,28.03
2019-03-27T07:23:50.486Z,30.50
2019-03-27T07:26:20.387Z,30.50
2019-03-27T07:28:51.729Z,27.80
2019-03-27T07:31:21.523Z,30.37
2019-03-27T07:33:51.874Z,23.47
2019-03-27T07:36:21.813Z,27.87
2019-03-27T07:38:51.727Z,25.30
2019-03-27T07:41:21.698Z,27.43
2019-03-27T07:43:51.789Z,28.03
2019-03-27T07:46:21.730Z,25.47
2019-03-27T07:48:54.080Z,26.73
2019-03-27T07:51:23.223Z,24.90
2019-03-27T07:53:52.958Z,27.23
2019-03-27T07:56:22.860Z,20.63
2019-03-27T07:58:52.791Z,25.80
2019-03-27T08:01:22.610Z,25.33
2019-03-27T08:03:52.376Z,18.77
2019-03-27T08:06:22.379Z,21.20
2019-03-27T08:08:52.279Z,21.00
2019-03-27T08:11:22.111Z,19.83
2019-03-27T08:13:52.250Z,20.90
2019-03-27T08:16:22.267Z,19.10
2019-03-27T08:18:52.257Z,18.70
2019-03-27T08:21:22.214Z,19.20
2019-03-27T08:23:52.106Z,16.73
2019-03-27T08:26:21.957Z,19.93
2019-03-27T08:28:51.745Z,14.23
2019-03-27T08:31:22.538Z,17.07
2019-03-27T08:33:53.089Z,16.57
2019-03-27T08:36:23.163Z,19.60
2019-03-27T08:38:54.584Z,16.37
2019-03-27T08:41:25.776Z,17.17
2019-03-27T08:43:56.099Z,21.07
2019-03-27T08:46:26.095Z,19.43
2019-03-27T08:48:55.939Z,14.83
2019-03-27T08:51:26.532Z,14.67
2019-03-27T08:53:56.362Z,17.27
2019-03-27T08:56:26.465Z,18.03
2019-03-27T08:58:56.333Z,13.13
2019-03-27T09:01:26.609Z,16.33
2019-03-27T09:03:56.418Z,12.90
2019-03-27T09:06:33.495Z,18.00
2019-03-27T09:08:58.093Z,18.73
2019-03-27T09:11:28.017Z,17.73
2019-03-27T09:13:58.474Z,18.93
2019-03-27T09:16:28.278Z,17.20
2019-03-27T09:18:59.081Z,19.10
2019-03-27T09:21:28.838Z,18.10
2019-03-27T09:23:58.594Z,18.93
2019-03-27T09:26:28.835Z,19.40
2019-03-27T09:28:58.702Z,17.10
2019-03-27T09:31:28.490Z,21.03
2019-03-27T09:33:58.365Z,17.23
2019-03-27T09:36:28.208Z,17.17
2019-03-27T09:38:58.070Z,16.97
2019-03-27T09:41:28.041Z,17.60
2019-03-27T09:43:57.953Z,17.07
2019-03-27T09:46:27.838Z,17.90
2019-03-27T09:48:57.625Z,17.53
2019-03-27T09:51:28.052Z,15.60
2019-03-27T09:53:58.726Z,16.80
2019-03-27T09:56:28.729Z,17.97
2019-03-27T09:58:58.699Z,17.80
2019-03-27T10:01:28.563Z,15.70
2019-03-27T10:03:58.781Z,13.93
2019-03-27T10:06:28.886Z,16.07
2019-03-27T10:08:59.269Z,10.57
2019-03-27T10:11:30.103Z,10.10
2019-03-27T10:14:00.085Z,16.60
2019-03-27T10:16:30.341Z,17.00
2019-03-27T10:19:00.414Z,15.27
2019-03-27T10:21:30.370Z,17.60
2019-03-27T10:24:00.351Z,13.70
2019-03-27T10:26:30.216Z,14.83
2019-03-27T10:29:00.186Z,11.77
2019-03-27T10:31:30.072Z,12.70
2019-03-27T10:34:01.113Z,11.27
2019-03-27T10:36:31.216Z,17.87
2019-03-27T10:39:01.336Z,15.60
2019-03-27T10:41:31.153Z,12.50
2019-03-27T10:44:01.177Z,13.53
2019-03-27T10:46:31.200Z,11.67
2019-03-27T10:49:01.221Z,8.90
2019-03-27T10:51:31.229Z,10.00
2019-03-27T10:54:01.200Z,8.57
2019-03-27T10:56:32.097Z,8.67
2019-03-27T10:59:02.238Z,8.03
2019-03-27T11:01:32.331Z,7.83
2019-03-27T11:04:02.345Z,10.20
2019-03-27T11:06:32.190Z,7.07
2019-03-27T11:09:02.043Z,8.77
2019-03-27T11:11:31.968Z,6.17
2019-03-27T11:14:01.948Z,7.00
2019-03-27T11:16:32.117Z,7.23
2019-03-27T11:19:01.941Z,5.90
2019-03-27T11:21:31.820Z,6.67
2019-03-27T11:24:01.890Z,12.03
2019-03-27T11:26:33.156Z,11.03
2019-03-27T11:29:03.018Z,8.60
2019-03-27T11:31:33.667Z,7.30
2019-03-27T11:34:03.704Z,6.70
2019-03-27T11:36:35.269Z,5.55
2019-03-27T11:39:08.849Z,6.20
2019-03-27T11:41:39.069Z,5.47
2019-03-27T11:44:12.521Z,5.97
2019-03-27T11:46:41.222Z,3.85
2019-03-27T11:49:11.081Z,4.78
2019-03-27T11:51:40.989Z,10.43
2019-03-27T11:54:11.427Z,9.60
2019-03-27T11:56:41.725Z,8.20
2019-03-27T11:59:12.023Z,7.53
2019-03-27T12:01:43.851Z,6.17
2019-03-27T12:04:14.485Z,7.03
2019-03-27T12:06:44.507Z,5.65
2019-03-27T12:09:14.418Z,7.33
2019-03-27T12:11:44.549Z,6.30
2019-03-27T12:14:14.338Z,7.97
2019-03-27T12:16:44.533Z,18.03
2019-03-27T12:19:14.381Z,14.67
2019-03-27T12:21:44.288Z,12.50
2019-03-27T12:24:14.124Z,7.47
2019-03-27T12:26:44.308Z,9.97
2019-03-27T12:29:14.225Z,8.90
2019-03-27T12:31:44.054Z,9.33
2019-03-27T12:34:13.971Z,9.33
2019-03-27T12:36:44.683Z,8.10
2019-03-27T12:39:14.458Z,13.80
2019-03-27T12:41:45.078Z,10.77
2019-03-27T12:44:14.913Z,12.47
2019-03-27T12:46:44.875Z,16.80
2019-03-27T12:49:14.865Z,13.80
2019-03-27T12:51:44.716Z,30.17
2019-03-27T12:54:14.542Z,12.30
2019-03-27T12:56:44.840Z,8.80
2019-03-27T12:59:15.500Z,13.50
2019-03-27T13:01:45.943Z,7.67
2019-03-27T13:04:15.802Z,10.80
2019-03-27T13:06:46.080Z,9.40
2019-03-27T13:09:15.929Z,17.97
2019-03-27T13:11:45.743Z,27.70
2019-03-27T13:14:15.898Z,33.73
2019-03-27T13:16:45.810Z,7.50
2019-03-27T13:19:15.653Z,5.70
2019-03-27T13:21:45.510Z,4.10
2019-03-27T13:24:15.267Z,5.07
2019-03-27T13:26:45.098Z,10.70
2019-03-27T13:29:15.372Z,11.10
2019-03-27T13:31:45.373Z,15.77
2019-03-27T13:34:15.193Z,8.73
2019-03-27T13:36:47.946Z,12.73
2019-03-27T13:39:18.168Z,7.33
2019-03-27T13:41:48.022Z,14.43
2019-03-27T13:44:18.039Z,18.60
2019-03-27T13:46:47.895Z,20.32
2019-03-27T13:49:18.426Z,12.13
2019-03-27T13:51:48.282Z,7.17
2019-03-27T13:54:18.326Z,9.50
2019-03-27T13:56:48.237Z,9.93
2019-03-27T13:59:18.222Z,7.05
2019-03-27T14:01:48.565Z,8.45
2019-03-27T14:04:18.558Z,17.02
2019-03-27T14:06:49.544Z,7.78
2019-03-27T14:09:19.448Z,8.10
2019-03-27T14:11:49.362Z,9.23
2019-03-27T14:14:19.756Z,15.77
2019-03-27T14:16:49.565Z,11.10
2019-03-27T14:19:20.359Z,8.10
2019-03-27T14:21:54.799Z,8.80
2019-03-27T14:24:22.230Z,7.67
2019-03-27T14:26:51.989Z,12.73
2019-03-27T14:29:21.934Z,8.77
2019-03-27T14:31:52.150Z,21.23
2019-03-27T14:34:21.969Z,8.97
2019-03-27T14:36:51.848Z,13.17
2019-03-27T14:39:21.665Z,10.70
2019-03-27T14:41:52.021Z,13.77
2019-03-27T14:44:22.358Z,8.70
2019-03-27T14:46:52.246Z,5.77
2019-03-27T14:49:22.150Z,5.10
2019-03-27T14:51:52.205Z,7.07
2019-03-27T14:54:22.058Z,6.83
2019-03-27T14:56:51.790Z,10.57
2019-03-27T14:59:21.677Z,7.67
2019-03-27T15:01:51.445Z,8.80
2019-03-27T15:04:21.322Z,7.87
2019-03-27T15:06:51.319Z,6.50
2019-03-27T15:09:21.437Z,9.48
2019-03-27T15:11:51.804Z,5.12
2019-03-27T15:14:21.588Z,5.15
2019-03-27T15:16:52.090Z,5.75
2019-03-27T15:19:22.034Z,7.60
2019-03-27T15:21:52.244Z,11.12
2019-03-27T15:24:22.036Z,8.45
2019-03-27T15:26:51.787Z,7.35
2019-03-27T15:29:21.726Z,4.30
2019-03-27T15:31:51.717Z,5.28
2019-03-27T15:34:21.511Z,4.77
2019-03-27T15:36:51.439Z,8.18
2019-03-27T15:39:21.476Z,6.55
2019-03-27T15:41:51.446Z,6.90
2019-03-27T15:44:21.250Z,6.00
2019-03-27T15:46:51.337Z,8.27
2019-03-27T15:49:21.564Z,7.77
2019-03-27T15:51:51.741Z,7.90
2019-03-27T15:54:21.606Z,5.90
2019-03-27T15:56:51.572Z,5.30
2019-03-27T15:59:22.469Z,7.37
2019-03-27T16:01:52.235Z,5.03
2019-03-27T16:04:22.141Z,7.40
2019-03-27T16:06:52.348Z,8.23
2019-03-27T16:09:22.642Z,6.63
2019-03-27T16:11:52.478Z,8.90
2019-03-27T16:14:22.201Z,8.50
2019-03-27T16:17:12.058Z,7.60
2019-03-27T16:19:25.881Z,8.13
2019-03-27T16:21:55.772Z,14.20
2019-03-27T16:24:25.676Z,10.67
2019-03-27T16:27:04.272Z,7.07
2019-03-27T16:29:27.033Z,17.10
2019-03-27T16:31:56.962Z,11.67
2019-03-27T16:34:26.795Z,14.10
2019-03-27T16:36:56.928Z,9.30
2019-03-27T16:39:26.808Z,11.60
2019-03-27T16:41:57.373Z,17.37
2019-03-27T16:44:27.159Z,7.33
2019-03-27T16:46:57.331Z,10.83
2019-03-27T16:49:27.439Z,21.97
2019-03-27T16:51:57.385Z,17.00
2019-03-27T16:54:27.285Z,10.33
2019-03-27T16:56:57.058Z,20.97
2019-03-27T16:59:26.826Z,33.00
2019-03-27T17:01:57.128Z,33.67
2019-03-27T17:04:26.907Z,14.23
2019-03-27T17:06:57.074Z,16.43
2019-03-27T17:09:27.433Z,15.80
2019-03-27T17:11:57.846Z,15.60
2019-03-27T17:14:27.642Z,11.90
2019-03-27T17:16:57.547Z,11.77
2019-03-27T17:19:27.468Z,7.93
2019-03-27T17:21:57.252Z,16.10
2019-03-27T17:24:27.612Z,11.67
2019-03-27T17:26:57.919Z,9.20
2019-03-27T17:29:27.881Z,9.67
2019-03-27T17:31:57.793Z,7.37
2019-03-27T17:34:27.624Z,9.00
2019-03-27T17:36:57.877Z,7.33
2019-03-27T17:39:27.822Z,7.57
2019-03-27T17:41:58.245Z,8.93
2019-03-27T17:44:28.313Z,8.83
2019-03-27T17:46:58.242Z,14.90
2019-03-27T17:49:28.319Z,13.10
2019-03-27T17:51:58.386Z,18.77
2019-03-27T17:54:28.351Z,12.60
2019-03-27T17:56:58.094Z,33.40
2019-03-27T17:59:28.335Z,24.97
2019-03-27T18:01:59.107Z,58.97
2019-03-27T18:04:31.412Z,16.67
2019-03-27T18:07:02.925Z,35.77
2019-03-27T18:09:33.276Z,24.57
2019-03-27T18:12:05.112Z,19.63
2019-03-27T18:14:36.364Z,9.80
2019-03-27T18:17:08.372Z,39.10
2019-03-27T18:19:56.730Z,13.10
2019-03-27T18:22:28.285Z,15.40
2019-03-27T18:25:00.340Z,18.80
2019-03-27T18:27:31.642Z,27.93
2019-03-27T18:30:03.756Z,31.33
2019-03-27T18:32:38.181Z,14.83
2019-03-27T18:35:58.297Z,30.03
2019-03-27T18:38:30.337Z,43.13
2019-03-27T18:41:02.264Z,62.57
2019-03-27T18:43:33.396Z,24.93
2019-03-27T18:46:06.655Z,33.80
2019-03-27T18:48:39.483Z,31.77
2019-03-27T18:51:11.610Z,21.83
2019-03-27T18:53:43.002Z,13.50
2019-03-27T18:56:17.786Z,54.47
2019-03-27T18:58:49.690Z,110.63
2019-03-27T19:01:21.363Z,21.70
2019-03-27T19:03:54.357Z,21.77
2019-03-27T19:06:25.131Z,18.80
2019-03-27T19:08:55.579Z,18.03
2019-03-27T19:11:25.643Z,12.83
2019-03-27T19:13:55.723Z,18.63
2019-03-27T19:16:25.541Z,20.17
2019-03-27T19:18:55.571Z,52.67
2019-03-27T19:21:25.398Z,31.73
2019-03-27T19:23:55.300Z,85.47
2019-03-27T19:26:25.276Z,155.60
2019-03-27T19:28:56.047Z,260.67
2019-03-27T19:31:26.302Z,52.03
2019-03-27T19:33:58.004Z,40.10
2019-03-27T19:36:27.986Z,21.57
2019-03-27T19:38:58.032Z,46.30
2019-03-27T19:41:28.649Z,41.67
2019-03-27T19:44:00.318Z,51.50
2019-03-27T19:46:30.732Z,29.13
2019-03-27T19:49:01.571Z,34.17
2019-03-27T19:51:31.401Z,31.03
2019-03-27T19:54:02.518Z,24.30
2019-03-27T19:56:32.601Z,23.90
2019-03-27T19:59:03.191Z,32.33
2019-03-27T20:01:33.592Z,25.73
2019-03-27T20:04:03.551Z,23.97
2019-03-27T20:06:34.681Z,21.27
2019-03-27T20:09:06.354Z,20.30
2019-03-27T20:11:36.373Z,19.50
2019-03-27T20:14:06.693Z,19.80
2019-03-27T20:16:37.165Z,22.17
2019-03-27T20:19:07.311Z,16.40
2019-03-27T20:21:37.958Z,12.97
2019-03-27T20:24:08.254Z,13.63
2019-03-27T20:26:38.374Z,12.67
2019-03-27T20:29:08.303Z,16.87
2019-03-27T20:31:40.920Z,10.10
2019-03-27T20:34:11.567Z,12.33
2019-03-27T20:36:41.818Z,10.53
2019-03-27T20:39:13.216Z,14.30
2019-03-27T20:41:43.256Z,17.20
2019-03-27T20:44:31.820Z,19.70
2019-03-27T20:47:02.084Z,14.07
2019-03-27T20:49:32.315Z,14.37
2019-03-27T20:52:02.901Z,14.40
2019-03-27T20:54:33.115Z,10.83
2019-03-27T20:57:02.914Z,11.93
2019-03-27T20:59:32.656Z,11.93
2019-03-27T21:02:02.576Z,12.67
2019-03-27T21:04:33.930Z,13.27
2019-03-27T21:07:04.239Z,11.13
2019-03-27T21:09:34.241Z,14.73
2019-03-27T21:12:04.832Z,12.67
2019-03-27T21:14:35.217Z,8.80
2019-03-27T21:17:05.576Z,11.83
2019-03-27T21:19:36.252Z,13.10
2019-03-27T21:22:06.266Z,14.17
2019-03-27T21:24:36.790Z,23.90
2019-03-27T21:27:06.647Z,35.67
2019-03-27T21:29:36.774Z,51.63
2019-03-27T21:32:08.991Z,25.70
2019-03-27T21:34:41.611Z,23.97
2019-03-27T21:37:11.587Z,20.90
2019-03-27T21:39:41.738Z,20.63
2019-03-27T21:42:12.075Z,14.13
2019-03-27T21:44:42.078Z,22.07
2019-03-27T21:47:12.632Z,19.33
2019-03-27T21:49:43.710Z,18.63
2019-03-27T21:52:13.501Z,16.73
2019-03-27T21:54:43.486Z,17.10
2019-03-27T21:57:13.333Z,14.53
2019-03-27T21:59:43.390Z,12.47
2019-03-27T22:02:13.529Z,13.53
2019-03-27T22:04:43.467Z,15.67
2019-03-27T22:07:13.281Z,27.90
2019-03-27T22:09:43.814Z,20.17
2019-03-27T22:12:13.694Z,16.13
2019-03-27T22:14:43.511Z,14.83
2019-03-27T22:17:14.024Z,17.27
2019-03-27T22:19:43.915Z,16.53
2019-03-27T22:22:14.182Z,18.77
2019-03-27T22:24:44.079Z,18.53
2019-03-27T22:27:13.999Z,15.10
2019-03-27T22:29:44.536Z,14.10
2019-03-27T22:32:14.342Z,17.03
2019-03-27T22:34:44.559Z,11.93
2019-03-27T22:37:15.364Z,14.83
2019-03-27T22:39:45.337Z,16.27
2019-03-27T22:42:15.780Z,11.40
2019-03-27T22:44:45.795Z,11.03
2019-03-27T22:47:16.019Z,12.33
2019-03-27T22:49:45.935Z,10.77
2019-03-27T22:52:16.246Z,13.60
2019-03-27T22:54:46.341Z,15.17
2019-03-27T22:57:16.152Z,13.17
2019-03-27T22:59:47.197Z,12.67
2019-03-27T23:02:17.582Z,12.83
2019-03-27T23:04:47.444Z,16.57
2019-03-27T23:07:17.503Z,16.40
2019-03-27T23:09:47.635Z,20.67
2019-03-27T23:12:17.606Z,15.07
2019-03-27T23:14:47.460Z,25.03
2019-03-27T23:17:17.428Z,18.00
2019-03-27T23:19:51.444Z,15.50
2019-03-27T23:22:21.556Z,16.83
2019-03-27T23:24:51.289Z,16.93
2019-03-27T23:27:21.126Z,19.20
2019-03-27T23:29:51.691Z,17.53
2019-03-27T23:32:21.942Z,18.27
2019-03-27T23:34:52.163Z,17.53
2019-03-27T23:37:22.076Z,21.53
2019-03-27T23:39:54.107Z,19.07
2019-03-27T23:42:24.119Z,20.17
2019-03-27T23:44:54.187Z,16.97
2019-03-27T23:47:26.138Z,15.93
2019-03-27T23:49:56.074Z,20.73
2019-03-27T23:55:01.079Z,18.37
2019-03-27T23:57:31.181Z,18.57
